createdAt,value
2022-08-02T00:01:09.681Z,92.52
2022-08-02T00:03:40.450Z,93.40
2022-08-02T00:06:11.146Z,93.25
2022-08-02T00:08:38.917Z,94.62
2022-08-02T00:11:09.693Z,94.25
2022-08-02T00:13:37.545Z,94.96
2022-08-02T00:16:08.749Z,93.66
2022-08-02T00:18:36.499Z,94.30
2022-08-02T00:21:09.726Z,94.68
2022-08-02T00:24:03.535Z,94.82
2022-08-02T00:26:34.566Z,94.72
2022-08-02T00:29:04.980Z,95.63
2022-08-02T00:31:37.841Z,94.89
2022-08-02T00:34:28.674Z,95.78
2022-08-02T00:36:53.379Z,95.16
2022-08-02T00:39:34.972Z,94.56
2022-08-02T00:42:06.386Z,94.32
2022-08-02T00:44:34.196Z,93.71
2022-08-02T00:47:02.109Z,94.13
2022-08-02T00:49:30.029Z,93.15
2022-08-02T00:51:57.884Z,93.80
2022-08-02T00:54:25.921Z,93.72
2022-08-02T00:56:53.746Z,94.31
2022-08-02T00:59:21.530Z,94.74
2022-08-02T01:01:57.268Z,95.43
2022-08-02T01:04:32.305Z,96.02
2022-08-02T01:07:13.535Z,96.73
2022-08-02T01:09:45.514Z,95.80
2022-08-02T01:12:18.030Z,95.59
2022-08-02T01:14:52.636Z,97.25
2022-08-02T01:17:39.627Z,96.22
2022-08-02T01:20:14.193Z,96.06
2022-08-02T01:23:12.465Z,96.80
2022-08-02T01:26:17.280Z,97.59
2022-08-02T01:28:52.417Z,97.30
2022-08-02T01:31:26.237Z,97.14
2022-08-02T01:34:02.828Z,97.24
2022-08-02T01:36:41.570Z,97.36
2022-08-02T01:39:26.700Z,98.00
2022-08-02T01:42:01.744Z,97.23
2022-08-02T01:44:31.635Z,97.21
2022-08-02T01:47:01.421Z,97.47
2022-08-02T01:49:29.336Z,97.41
2022-08-02T01:52:24.625Z,97.12
2022-08-02T01:55:04.882Z,96.94
2022-08-02T01:57:41.880Z,96.46
2022-08-02T02:00:13.634Z,96.82
2022-08-02T02:02:43.804Z,96.47
2022-08-02T02:05:15.973Z,96.27
2022-08-02T02:07:47.487Z,96.63
2022-08-02T02:10:16.573Z,97.71
2022-08-02T02:12:45.339Z,97.63
2022-08-02T02:15:18.169Z,98.50
2022-08-02T02:17:52.976Z,99.02
2022-08-02T02:20:37.697Z,98.78
2022-08-02T02:23:05.479Z,98.63
2022-08-02T02:25:35.878Z,98.77
2022-08-02T02:28:16.255Z,98.94
2022-08-02T02:30:49.992Z,99.21
2022-08-02T02:33:21.060Z,98.75
2022-08-02T02:35:50.085Z,98.30
2022-08-02T02:38:18.902Z,98.46
2022-08-02T02:40:50.254Z,98.39
2022-08-02T02:43:20.806Z,98.31
2022-08-02T02:45:48.789Z,98.23
2022-08-02T02:48:19.555Z,98.02
2022-08-02T02:50:47.350Z,98.02
2022-08-02T02:53:15.165Z,97.85
2022-08-02T02:56:02.210Z,98.27
2022-08-02T02:58:31.414Z,98.72
2022-08-02T03:01:18.025Z,99.95
2022-08-02T03:03:48.601Z,100.00
2022-08-02T03:06:16.443Z,100.00
2022-08-02T03:08:44.695Z,100.00
2022-08-02T03:11:12.520Z,100.00
2022-08-02T03:13:46.131Z,100.00
2022-08-02T03:16:19.626Z,99.41
2022-08-02T03:18:52.974Z,99.68
2022-08-02T03:21:28.954Z,99.43
2022-08-02T03:24:01.013Z,100.00
2022-08-02T03:26:31.702Z,99.57
2022-08-02T03:29:09.840Z,99.86
2022-08-02T03:31:41.064Z,99.43
2022-08-02T03:34:08.863Z,99.81
2022-08-02T03:36:36.661Z,99.80
2022-08-02T03:39:04.665Z,99.41
2022-08-02T03:41:32.426Z,99.45
2022-08-02T03:44:02.793Z,99.47
2022-08-02T03:46:35.098Z,98.92
2022-08-02T03:49:05.749Z,98.96
2022-08-02T03:51:33.684Z,99.36
2022-08-02T03:54:04.579Z,99.47
2022-08-02T03:56:37.133Z,99.70
2022-08-02T03:59:10.191Z,99.41
2022-08-02T04:01:38.063Z,99.33
2022-08-02T04:04:06.940Z,99.40
2022-08-02T04:06:39.883Z,99.59
2022-08-02T04:09:09.373Z,99.43
2022-08-02T04:11:37.314Z,99.94
2022-08-02T04:14:08.441Z,99.69
2022-08-02T04:16:55.433Z,100.00
2022-08-02T04:19:29.757Z,100.00
2022-08-02T04:21:57.555Z,100.00
2022-08-02T04:24:29.089Z,99.95
2022-08-02T04:27:04.035Z,100.00
2022-08-02T04:29:35.804Z,100.00
2022-08-02T04:32:04.519Z,100.00
2022-08-02T04:34:35.513Z,100.00
2022-08-02T04:37:08.031Z,100.00
2022-08-02T04:39:35.915Z,100.00
2022-08-02T04:42:03.755Z,100.00
2022-08-02T04:44:31.519Z,100.00
2022-08-02T04:47:07.026Z,100.00
2022-08-02T04:49:34.907Z,99.39
2022-08-02T04:52:02.727Z,99.13
2022-08-02T04:54:35.806Z,99.35
2022-08-02T04:57:26.492Z,99.33
2022-08-02T04:59:54.741Z,99.44
2022-08-02T05:02:22.550Z,99.62
2022-08-02T05:04:50.420Z,99.75
2022-08-02T05:07:18.251Z,99.32
2022-08-02T05:09:56.422Z,99.00
2022-08-02T05:12:27.382Z,100.00
2022-08-02T05:14:55.196Z,100.00
2022-08-02T05:17:23.017Z,99.72
2022-08-02T05:19:50.831Z,99.96
2022-08-02T05:22:21.642Z,100.00
2022-08-02T05:24:57.905Z,99.92
2022-08-02T05:27:30.709Z,99.58
2022-08-02T05:30:01.234Z,99.61
2022-08-02T05:32:29.009Z,99.07
2022-08-02T05:34:58.791Z,99.61
2022-08-02T05:37:26.684Z,100.00
2022-08-02T05:40:01.923Z,99.34
2022-08-02T05:42:38.679Z,99.40
2022-08-02T05:45:09.774Z,99.36
2022-08-02T05:47:40.983Z,98.73
2022-08-02T05:50:09.671Z,98.51
2022-08-02T05:52:47.583Z,99.08
2022-08-02T05:55:20.258Z,99.38
2022-08-02T05:57:57.644Z,99.57
2022-08-02T06:00:34.657Z,97.72
2022-08-02T06:03:04.776Z,97.16
2022-08-02T06:05:40.721Z,97.07
2022-08-02T06:08:11.862Z,97.53
2022-08-02T06:10:44.904Z,95.94
2022-08-02T06:13:17.597Z,96.42
2022-08-02T06:15:52.924Z,96.22
2022-08-02T06:18:27.785Z,95.42
2022-08-02T06:22:31.402Z,95.78
2022-08-02T06:23:58.749Z,94.52
2022-08-02T06:26:32.625Z,93.89
2022-08-02T06:29:00.742Z,93.69
2022-08-02T06:31:33.453Z,94.06
2022-08-02T06:34:04.349Z,93.52
2022-08-02T06:36:48.962Z,94.37
2022-08-02T06:39:33.747Z,94.42
2022-08-02T06:42:05.369Z,94.03
2022-08-02T06:44:50.059Z,94.22
2022-08-02T06:47:23.183Z,94.32
2022-08-02T06:49:56.570Z,94.14
2022-08-02T06:52:29.666Z,93.45
2022-08-02T06:55:01.897Z,92.87
2022-08-02T06:57:38.489Z,92.34
2022-08-02T07:00:12.617Z,91.91
2022-08-02T07:02:46.394Z,91.02
2022-08-02T07:05:20.549Z,90.56
2022-08-02T07:07:54.169Z,91.27
2022-08-02T07:10:27.417Z,90.33
2022-08-02T07:13:01.280Z,89.83
2022-08-02T07:15:34.654Z,89.03
2022-08-02T07:18:17.077Z,88.39
2022-08-02T07:20:48.206Z,87.78
2022-08-02T07:23:25.896Z,88.15
2022-08-02T07:26:01.876Z,87.23
2022-08-02T07:28:34.964Z,86.79
2022-08-02T07:31:10.940Z,87.07
2022-08-02T07:33:47.209Z,86.41
2022-08-02T07:36:17.037Z,86.58
2022-08-02T07:38:59.368Z,86.21
2022-08-02T07:41:32.601Z,85.94
2022-08-02T07:44:03.773Z,85.60
2022-08-02T07:46:34.791Z,84.62
2022-08-02T07:49:20.041Z,84.99
2022-08-02T07:51:48.086Z,84.60
2022-08-02T07:54:18.859Z,83.94
2022-08-02T07:56:46.816Z,83.53
2022-08-02T07:59:31.468Z,83.79
2022-08-02T08:01:59.467Z,82.97
2022-08-02T08:04:29.818Z,82.70
2022-08-02T08:07:02.756Z,81.67
2022-08-02T08:09:30.647Z,79.72
2022-08-02T08:12:03.208Z,80.50
2022-08-02T08:14:34.116Z,79.18
2022-08-02T08:17:05.474Z,77.82
2022-08-02T08:19:51.551Z,75.89
2022-08-02T08:22:25.491Z,76.51
2022-08-02T08:24:58.231Z,76.72
2022-08-02T08:27:26.220Z,75.37
2022-08-02T08:29:54.341Z,74.35
2022-08-02T08:32:22.564Z,71.47
2022-08-02T08:34:50.797Z,72.18
2022-08-02T08:37:18.953Z,72.15
2022-08-02T08:39:58.392Z,71.85
2022-08-02T08:42:32.336Z,69.37
2022-08-02T08:45:01.111Z,68.34
2022-08-02T08:47:42.421Z,68.26
2022-08-02T08:50:18.943Z,66.25
2022-08-02T08:53:02.964Z,64.95
2022-08-02T08:55:34.654Z,63.83
2022-08-02T08:58:03.234Z,63.30
2022-08-02T09:00:37.393Z,65.17
2022-08-02T09:03:06.199Z,63.17
2022-08-02T09:05:39.198Z,64.25
2022-08-02T09:08:14.820Z,62.83
2022-08-02T09:10:50.958Z,63.85
2022-08-02T09:13:31.371Z,63.42
2022-08-02T09:16:14.656Z,62.44
2022-08-02T09:18:47.932Z,62.44
2022-08-02T09:21:23.578Z,61.42
2022-08-02T09:23:58.548Z,61.07
2022-08-02T09:26:33.460Z,61.50
2022-08-02T09:29:03.015Z,61.03
2022-08-02T09:31:30.809Z,59.93
2022-08-02T09:34:06.614Z,59.66
2022-08-02T09:36:54.473Z,58.33
2022-08-02T09:39:27.698Z,58.52
2022-08-02T09:41:58.457Z,59.01
2022-08-02T09:44:28.506Z,57.27
2022-08-02T09:47:05.228Z,57.00
2022-08-02T09:49:36.293Z,56.19
2022-08-02T09:52:04.082Z,55.35
2022-08-02T09:54:35.118Z,54.29
2022-08-02T09:57:02.994Z,54.81
2022-08-02T09:59:36.101Z,53.98
2022-08-02T10:02:17.018Z,53.25
2022-08-02T10:04:52.434Z,53.09
2022-08-02T10:07:24.052Z,50.47
2022-08-02T10:09:53.024Z,51.37
2022-08-02T10:12:26.139Z,50.98
2022-08-02T10:14:54.078Z,48.72
2022-08-02T10:17:24.742Z,48.57
2022-08-02T10:20:02.962Z,49.31
2022-08-02T10:22:37.464Z,49.32
2022-08-02T10:25:07.995Z,49.91
2022-08-02T10:28:03.815Z,50.36
2022-08-02T10:30:27.336Z,50.32
2022-08-02T10:32:57.670Z,50.73
2022-08-02T10:35:32.247Z,50.07
2022-08-02T10:38:05.315Z,50.03
2022-08-02T10:40:54.473Z,49.54
2022-08-02T10:43:45.793Z,48.62
2022-08-02T10:46:28.941Z,49.80
2022-08-02T10:52:03.003Z,49.73
2022-08-02T10:54:41.802Z,49.96
2022-08-02T10:57:38.656Z,49.10
2022-08-02T11:00:28.006Z,48.88
2022-08-02T11:03:00.735Z,49.66
2022-08-02T11:05:43.178Z,49.18
2022-08-02T11:08:23.930Z,49.84
2022-08-02T11:10:54.340Z,50.56
2022-08-02T11:13:28.155Z,50.54
2022-08-02T11:16:11.308Z,51.16
2022-08-02T11:18:48.523Z,49.90
2022-08-02T11:21:26.857Z,50.43
2022-08-02T11:23:54.570Z,49.00
2022-08-02T11:26:31.575Z,50.10
2022-08-02T11:29:02.166Z,49.72
2022-08-02T11:31:32.318Z,50.32
2022-08-02T11:34:06.517Z,50.07
2022-08-02T11:36:53.783Z,48.68
2022-08-02T11:39:22.904Z,48.38
2022-08-02T11:41:54.586Z,49.44
2022-08-02T11:44:26.225Z,48.56
2022-08-02T11:47:05.467Z,48.30
2022-08-02T11:49:35.836Z,48.76
2022-08-02T11:52:08.495Z,48.36
2022-08-02T11:54:37.655Z,48.79
2022-08-02T11:57:21.162Z,48.81
2022-08-02T11:59:56.211Z,48.22
2022-08-02T12:02:29.081Z,48.06
2022-08-02T12:05:02.076Z,47.75
2022-08-02T12:07:46.236Z,48.68
2022-08-02T12:10:19.438Z,47.11
2022-08-02T12:12:51.884Z,46.58
2022-08-02T12:15:34.981Z,45.54
2022-08-02T12:18:28.497Z,45.39
2022-08-02T12:20:58.789Z,46.15
2022-08-02T12:23:29.729Z,46.73
2022-08-02T12:26:07.573Z,45.69
2022-08-02T12:28:36.953Z,44.82
2022-08-02T12:31:12.384Z,45.74
2022-08-02T12:33:48.013Z,43.79
2022-08-02T12:36:23.354Z,45.23
2022-08-02T12:38:54.823Z,44.73
2022-08-02T12:41:30.495Z,43.20
2022-08-02T12:44:07.745Z,44.82
2022-08-02T12:46:42.112Z,45.18
2022-08-02T12:49:22.034Z,44.25
2022-08-02T12:51:54.756Z,43.77
2022-08-02T12:54:31.693Z,44.45
2022-08-02T12:57:13.158Z,44.26
2022-08-02T12:59:45.641Z,44.08
2022-08-02T13:02:21.621Z,43.16
2022-08-02T13:05:00.456Z,44.05
2022-08-02T13:07:28.838Z,43.55
2022-08-02T13:10:02.600Z,43.24
2022-08-02T13:12:31.090Z,42.62
2022-08-02T13:15:01.013Z,42.48
2022-08-02T13:17:34.241Z,41.88
2022-08-02T13:20:05.205Z,41.91
2022-08-02T13:22:36.929Z,42.53
2022-08-02T13:25:10.633Z,42.62
2022-08-02T13:27:46.143Z,41.60
2022-08-02T13:30:13.977Z,41.50
2022-08-02T13:32:41.754Z,40.84
2022-08-02T13:35:17.952Z,39.90
2022-08-02T13:37:46.633Z,40.14
2022-08-02T13:40:21.979Z,40.47
2022-08-02T13:42:53.146Z,40.21
2022-08-02T13:45:26.549Z,38.99
2022-08-02T13:48:04.370Z,38.65
2022-08-02T13:50:33.576Z,39.46
2022-08-02T13:53:01.350Z,40.16
2022-08-02T13:55:31.860Z,39.39
2022-08-02T13:58:12.683Z,39.22
2022-08-02T14:00:45.701Z,38.46
2022-08-02T14:03:13.547Z,38.55
2022-08-02T14:05:48.468Z,38.58
2022-08-02T14:08:24.112Z,39.56
2022-08-02T14:10:59.405Z,38.44
2022-08-02T14:13:36.052Z,38.51
2022-08-02T14:16:06.609Z,38.00
2022-08-02T14:18:34.422Z,38.19
2022-08-02T14:21:02.220Z,39.20
2022-08-02T14:23:49.446Z,38.13
2022-08-02T14:26:27.044Z,38.91
2022-08-02T14:29:03.085Z,39.55
2022-08-02T14:31:30.923Z,39.37
2022-08-02T14:33:58.721Z,39.77
2022-08-02T14:36:27.442Z,40.22
2022-08-02T14:38:56.546Z,40.40
2022-08-02T14:41:29.139Z,40.57
2022-08-02T14:44:05.242Z,40.43
2022-08-02T14:46:33.871Z,39.75
2022-08-02T14:49:05.366Z,39.78
2022-08-02T14:51:33.374Z,39.43
2022-08-02T14:54:02.720Z,38.70
2022-08-02T14:56:31.308Z,38.83
2022-08-02T14:58:59.205Z,39.46
2022-08-02T15:01:27.076Z,39.93
2022-08-02T15:04:00.504Z,40.25
2022-08-02T15:06:33.940Z,40.31
2022-08-02T15:09:04.891Z,40.38
2022-08-02T15:11:47.772Z,40.17
2022-08-02T15:14:21.695Z,40.37
2022-08-02T15:16:58.447Z,40.71
2022-08-02T15:19:40.859Z,41.02
2022-08-02T15:22:22.863Z,41.27
2022-08-02T15:24:50.854Z,41.37
2022-08-02T15:27:18.646Z,41.67
2022-08-02T15:29:49.276Z,42.36
2022-08-02T15:32:19.891Z,42.63
2022-08-02T15:34:50.306Z,42.36
2022-08-02T15:37:20.852Z,42.92
2022-08-02T15:39:54.455Z,43.32
2022-08-02T15:42:30.304Z,42.61
2022-08-02T15:45:03.983Z,42.08
2022-08-02T15:47:39.854Z,41.64
2022-08-02T15:50:19.044Z,41.42
2022-08-02T15:52:46.979Z,41.80
2022-08-02T15:55:18.239Z,42.09
2022-08-02T15:57:46.159Z,41.60
2022-08-02T16:00:19.272Z,41.27
2022-08-02T16:02:48.119Z,40.98
2022-08-02T16:05:21.520Z,40.96
2022-08-02T16:07:49.312Z,40.51
2022-08-02T16:10:17.584Z,40.86
2022-08-02T16:12:45.425Z,41.34
2022-08-02T16:15:17.942Z,41.69
2022-08-02T16:17:54.332Z,42.04
2022-08-02T16:20:24.883Z,42.48
2022-08-02T16:22:52.725Z,43.37
2022-08-02T16:25:29.512Z,43.60
2022-08-02T16:28:06.217Z,43.82
2022-08-02T16:30:36.915Z,44.17
2022-08-02T16:33:04.814Z,44.60
2022-08-02T16:35:32.637Z,44.87
2022-08-02T16:38:00.388Z,45.25
2022-08-02T16:40:28.235Z,45.47
2022-08-02T16:42:56.068Z,45.51
2022-08-02T16:45:23.806Z,45.15
2022-08-02T16:47:57.407Z,45.23
2022-08-02T16:50:29.109Z,45.32
2022-08-02T16:53:07.365Z,45.46
2022-08-02T16:55:35.582Z,46.04
2022-08-02T16:58:03.368Z,45.76
2022-08-02T17:00:34.136Z,45.84
2022-08-02T17:03:13.329Z,45.90
2022-08-02T17:05:56.604Z,45.68
2022-08-02T17:08:32.164Z,45.76
2022-08-02T17:11:05.163Z,45.78
2022-08-02T17:16:25.681Z,45.85
2022-08-02T17:18:58.640Z,45.67
2022-08-02T17:21:30.300Z,45.67
2022-08-02T17:24:04.854Z,45.45
2022-08-02T17:26:35.646Z,45.41
2022-08-02T17:29:16.426Z,45.42
2022-08-02T17:32:05.654Z,45.56
2022-08-02T17:37:29.698Z,45.35
2022-08-02T17:39:58.402Z,45.27
2022-08-02T17:42:31.591Z,45.10
2022-08-02T17:45:16.669Z,45.19
2022-08-02T17:48:03.971Z,44.98
2022-08-02T17:50:38.299Z,45.20
2022-08-02T17:53:06.564Z,45.39
2022-08-02T17:55:42.560Z,45.27
2022-08-02T17:58:15.534Z,45.51
2022-08-02T18:00:45.676Z,45.24
2022-08-02T18:03:17.059Z,45.31
2022-08-02T18:05:53.722Z,45.58
2022-08-02T18:08:26.622Z,45.54
2022-08-02T18:10:57.857Z,45.29
2022-08-02T18:13:25.769Z,44.52
2022-08-02T18:16:02.899Z,44.31
2022-08-02T18:18:34.542Z,44.14
2022-08-02T18:21:15.657Z,43.99
2022-08-02T18:23:49.451Z,43.64
2022-08-02T18:26:28.490Z,43.30
2022-08-02T18:29:04.966Z,43.67
2022-08-02T18:31:51.019Z,44.87
2022-08-02T18:34:23.998Z,45.21
2022-08-02T18:36:52.275Z,45.42
2022-08-02T18:39:20.024Z,46.29
2022-08-02T18:41:55.228Z,47.16
2022-08-02T18:44:30.657Z,49.23
2022-08-02T18:46:59.186Z,49.49
2022-08-02T18:49:29.888Z,50.49
2022-08-02T18:52:31.018Z,51.89
2022-08-02T18:54:59.627Z,54.21
2022-08-02T18:58:17.452Z,54.30
2022-08-02T19:00:20.610Z,55.28
2022-08-02T19:02:56.070Z,56.97
2022-08-02T19:05:23.861Z,58.27
2022-08-02T19:08:11.939Z,59.21
2022-08-02T19:10:49.023Z,59.85
2022-08-02T19:13:19.486Z,60.20
2022-08-02T19:15:51.219Z,60.58
2022-08-02T19:18:19.076Z,62.44
2022-08-02T19:21:02.958Z,61.69
2022-08-02T19:23:33.741Z,62.15
2022-08-02T19:26:01.748Z,62.34
2022-08-02T19:28:34.778Z,62.07
2022-08-02T19:31:02.580Z,63.81
2022-08-02T19:34:06.174Z,63.16
2022-08-02T19:36:19.181Z,63.38
2022-08-02T19:38:55.132Z,63.37
2022-08-02T19:41:24.725Z,63.02
2022-08-02T19:44:25.378Z,62.93
2022-08-02T19:46:44.163Z,62.60
2022-08-02T19:49:40.329Z,62.41
2022-08-02T19:52:21.159Z,64.23
2022-08-02T19:54:55.721Z,63.36
2022-08-02T19:57:27.424Z,63.20
2022-08-02T20:00:01.270Z,63.40
2022-08-02T20:02:33.934Z,63.08
2022-08-02T20:05:16.154Z,63.00
2022-08-02T20:07:55.068Z,64.19
2022-08-02T20:10:27.669Z,65.40
2022-08-02T20:12:55.569Z,67.53
2022-08-02T20:18:16.332Z,67.93
2022-08-02T20:20:59.196Z,67.50
2022-08-02T20:23:33.870Z,68.14
2022-08-02T20:26:08.992Z,68.74
2022-08-02T20:28:40.144Z,68.65
2022-08-02T20:31:12.642Z,68.75
2022-08-02T20:33:55.378Z,69.20
2022-08-02T20:36:27.646Z,68.37
2022-08-02T20:38:55.834Z,67.99
2022-08-02T20:41:37.154Z,68.07
2022-08-02T20:44:15.623Z,68.06
2022-08-02T20:47:03.391Z,66.68
2022-08-02T20:49:41.471Z,65.70
2022-08-02T20:52:33.020Z,65.00
2022-08-02T20:55:16.944Z,65.12
2022-08-02T20:58:00.834Z,64.69
2022-08-02T21:00:29.552Z,63.88
2022-08-02T21:02:57.338Z,64.25
2022-08-02T21:05:53.838Z,65.34
2022-08-02T21:08:20.410Z,66.70
2022-08-02T21:10:52.349Z,65.04
2022-08-02T21:13:26.643Z,65.76
2022-08-02T21:15:56.795Z,65.32
2022-08-02T21:18:40.232Z,65.74
2022-08-02T21:21:09.703Z,67.65
2022-08-02T21:23:48.627Z,68.17
2022-08-02T21:26:19.686Z,68.17
2022-08-02T21:28:51.279Z,67.29
2022-08-02T21:31:19.624Z,66.68
2022-08-02T21:33:57.803Z,68.16
2022-08-02T21:36:32.602Z,66.65
2022-08-02T21:39:08.703Z,64.62
2022-08-02T21:41:39.759Z,65.68
2022-08-02T21:44:21.310Z,65.83
2022-08-02T21:46:50.308Z,66.01
2022-08-02T21:49:27.412Z,67.29
2022-08-02T21:52:10.020Z,67.50
2022-08-02T21:54:41.115Z,67.28
2022-08-02T21:57:15.972Z,66.20
2022-08-02T21:59:52.827Z,66.79
2022-08-02T22:02:30.611Z,65.92
2022-08-02T22:05:01.961Z,65.66
2022-08-02T22:07:38.183Z,68.05
2022-08-02T22:10:07.246Z,68.04
2022-08-02T22:12:39.952Z,68.41
2022-08-02T22:15:12.010Z,68.98
2022-08-02T22:17:50.713Z,68.45
2022-08-02T22:20:22.815Z,68.17
2022-08-02T22:22:52.682Z,68.21
2022-08-02T22:25:27.082Z,68.52
2022-08-02T22:28:36.408Z,68.83
2022-08-02T22:30:56.869Z,69.36
2022-08-02T22:33:47.260Z,69.77
2022-08-02T22:36:43.318Z,70.35
2022-08-02T22:39:19.212Z,69.48
2022-08-02T22:42:06.052Z,71.21
2022-08-02T22:44:40.032Z,70.95
2022-08-02T22:47:17.223Z,70.68
2022-08-02T22:52:35.206Z,71.59
2022-08-02T22:55:06.441Z,70.87
2022-08-02T22:57:34.331Z,71.57
2022-08-02T22:58:50.584Z,45.55
2022-08-02T22:58:50.748Z,45.56
2022-08-02T22:58:54.954Z,67.70
2022-08-02T22:59:09.955Z,70.99
2022-08-02T23:00:22.081Z,71.18
2022-08-02T23:02:49.850Z,71.24
2022-08-02T23:05:21.865Z,71.40
2022-08-02T23:07:49.679Z,71.21
2022-08-02T23:10:17.513Z,71.02
2022-08-02T23:12:48.232Z,71.50
2022-08-02T23:15:16.014Z,71.88
2022-08-02T23:18:02.259Z,71.64
2022-08-02T23:20:30.211Z,72.00
2022-08-02T23:22:57.975Z,71.99
2022-08-02T23:25:25.764Z,71.47
2022-08-02T23:27:58.564Z,71.69
2022-08-02T23:30:26.383Z,72.92
2022-08-02T23:32:54.108Z,72.00
2022-08-02T23:35:21.913Z,72.88
2022-08-02T23:37:59.554Z,72.97
2022-08-02T23:40:40.299Z,72.92
2022-08-02T23:43:14.070Z,73.10
2022-08-02T23:45:50.839Z,74.14
2022-08-02T23:48:20.777Z,74.70
2022-08-02T23:50:48.943Z,73.99
2022-08-02T23:53:16.975Z,74.79
2022-08-02T23:55:46.832Z,75.43
2022-08-02T23:58:17.000Z,74.98
